KDNS/DNS METAR and TAF weather

Enter ICAO airport designator
Station Type Date Time Source
KDNS METAR 2020/07/05 17:35 UTC NOAA

KDNS 051735Z AUTO 00000KT 10SM SCT038 SCT050 29/22 A3004 RMK AO2


Station Type Date Time Source
KDNS Decoded METAR 2020/07/05 17:35 UTC NOAA

Denison, IA, United States (KDNS) 41-59N 095-23W
Jul 05, 2020 - 01:35 PM EDT / 2020.07.05 1735 UTC
Wind: Calm:0
Visibility: 10 mile(s):0
Sky conditions: partly cloudy
Temperature: 84 F (29 C)
Dew Point: 71 F (22 C)
Relative Humidity: 65%
Pressure (altimeter): 30.04 in. Hg (1017 hPa)
ob: KDNS 051735Z AUTO 00000KT 10SM SCT038 SCT050 29/22 A3004 RMK AO2
cycle: 17

Station Type Date Time Source
KDNS TAF UTC NOAA

Error!

Example: see airport list